»·PEaware :: GFSEA KOTH-KRNT

GFSEA :: KOTH-KRNT

FLIGHT INFORMATION

Flight Status: Arrived
Operator: Unknown
More flights by this operator :: More flights under this callsign
Pilot: Matthew M. (8235)
Aircraft: BOEING 737-300
(B733)
More flights by this aircraft type
Origin: KOTH North Bend Mun
United States
Destination: KRNT Renton Mun
United States
More flights between these airports :: More routes between these airports
Route: OTH6 GAMMA UBG OLM2
File this flight plan on PilotEdge
Remarks: PBN / A1B3B4B5D3D4 DOF / 180610 PER / C
Altitude:
(Current/Filed)
37,000ft
Speed:
(Current/Filed)
431kts
Departed: 10-Jun-18 12:38 PM
Arrived: 10-Jun-18 01:34 PM
Distance/Time
Traveled:
259nm/0:56
Distance/Time
To Go:
Arrived

Flight Plot

Page will automatically refresh every two minutes.

Flight plan parsing failed; only flown route is shown


Map Options




Map Legend


Flown Route
Filed Route
Departure Airport
Arrival Airport
Navaid (VOR, NDB)
Fix

Horizontal Profiles

Position Reports

Time Latitude Longitude Heading Altitude Ground
Speed
10-Jun-18 12:16 43.416693 -124.249154 211 11ft 0kts
10-Jun-18 12:17 43.416693 -124.249154 211 11ft 0kts
10-Jun-18 12:18 43.416693 -124.249154 211 11ft 0kts
10-Jun-18 12:19 43.416693 -124.249154 211 11ft 0kts
10-Jun-18 12:20 43.416693 -124.249154 211 11ft 0kts
10-Jun-18 12:21 43.416693 -124.249154 211 11ft 0kts
10-Jun-18 12:22 43.416693 -124.249154 211 11ft 0kts
10-Jun-18 12:23 43.416693 -124.249154 211 11ft 0kts
10-Jun-18 12:24 43.416693 -124.249154 211 11ft 0kts
10-Jun-18 12:25 43.416693 -124.249154 211 11ft 0kts
10-Jun-18 12:26 43.416693 -124.249154 211 11ft 0kts
10-Jun-18 12:27 43.416693 -124.249154 211 11ft 0kts
10-Jun-18 12:28 43.416693 -124.249154 211 11ft 0kts
10-Jun-18 12:29 43.416693 -124.249154 211 11ft 0kts
10-Jun-18 12:30 43.416906 -124.248898 243 11ft 1kts
10-Jun-18 12:31 43.417219 -124.249369 15 11ft 0kts
10-Jun-18 12:32 43.417220 -124.249368 15 11ft 0kts
10-Jun-18 12:33 43.417220 -124.249368 15 11ft 0kts
10-Jun-18 12:34 43.417220 -124.249368 15 11ft 0kts
10-Jun-18 12:35 43.418121 -124.249234 44 11ft 9kts
10-Jun-18 12:36 43.420973 -124.242271 61 11ft 29kts
10-Jun-18 12:37 43.421962 -124.240583 342 11ft 0kts
10-Jun-18 12:38 43.419960 -124.247803 239 11ft 106kts
10-Jun-18 12:39 43.410206 -124.283158 270 1816ft 190kts
10-Jun-18 12:40 43.452142 -124.296617 62 6026ft 241kts
10-Jun-18 12:41 43.433797 -124.215575 121 10182ft 250kts
10-Jun-18 12:42 43.449767 -124.134301 16 12564ft 320kts
10-Jun-18 12:43 43.531625 -124.152181 351 15661ft 352kts
10-Jun-18 12:44 43.626726 -124.148788 355 19236ft 372kts
10-Jun-18 12:45 43.724397 -124.140151 353 22477ft 383kts
10-Jun-18 12:46 43.825060 -124.084438 15 25375ft 426kts
10-Jun-18 12:47 43.924390 -124.014206 13 27982ft 435kts
10-Jun-18 12:48 44.025899 -123.942579 12 30202ft 447kts
10-Jun-18 12:49 44.122799 -123.873683 9 33426ft 422kts
10-Jun-18 12:50 44.204739 -123.815574 9 35635ft 411kts
10-Jun-18 12:51 44.297691 -123.749386 9 37126ft 413kts
10-Jun-18 12:52 44.390659 -123.682747 9 37176ft 410kts
10-Jun-18 12:53 44.485938 -123.614306 8 37183ft 407kts
10-Jun-18 12:54 44.574319 -123.550591 9 37177ft 407kts
10-Jun-18 12:55 44.664935 -123.485038 9 37170ft 409kts
10-Jun-18 12:56 44.762224 -123.414363 8 37179ft 407kts
10-Jun-18 12:57 44.861369 -123.342125 10 37178ft 414kts
10-Jun-18 12:58 44.959029 -123.270310 9 37184ft 414kts
10-Jun-18 12:59 45.058559 -123.197166 13 37162ft 418kts
10-Jun-18 13:00 45.158561 -123.123500 16 37194ft 428kts
10-Jun-18 13:01 45.257020 -123.050569 16 37184ft 428kts
10-Jun-18 13:02 45.357977 -122.978854 3 37168ft 412kts
10-Jun-18 13:03 45.464057 -122.972768 351 37178ft 395kts
10-Jun-18 13:04 45.566353 -122.968319 352 37174ft 396kts
10-Jun-18 13:05 45.673835 -122.963341 352 37178ft 396kts
10-Jun-18 13:06 45.782059 -122.958324 352 37187ft 397kts
10-Jun-18 13:07 45.887484 -122.953395 352 37183ft 396kts
10-Jun-18 13:08 45.993007 -122.948431 350 37176ft 395kts
10-Jun-18 13:09 46.097048 -122.943550 350 37172ft 395kts
10-Jun-18 13:10 46.190550 -122.939063 350 37182ft 395kts
10-Jun-18 13:11 46.284088 -122.934628 350 37171ft 396kts
10-Jun-18 13:12 46.384175 -122.929912 351 34298ft 402kts
10-Jun-18 13:13 46.491450 -122.924752 351 31173ft 401kts
10-Jun-18 13:14 46.598297 -122.919652 352 28302ft 406kts
10-Jun-18 13:15 46.703118 -122.914559 353 25964ft 392kts
10-Jun-18 13:16 46.808419 -122.909425 353 23589ft 379kts
10-Jun-18 13:17 46.909816 -122.904541 355 21331ft 375kts
10-Jun-18 13:18 47.001239 -122.865711 37 19244ft 375kts
10-Jun-18 13:19 47.074984 -122.770253 38 16960ft 362kts
10-Jun-18 13:20 47.141316 -122.685600 38 14912ft 350kts
10-Jun-18 13:21 47.210138 -122.597460 38 13119ft 328kts
10-Jun-18 13:22 47.269633 -122.520715 38 12718ft 274kts
10-Jun-18 13:23 47.329096 -122.466684 356 11264ft 260kts
10-Jun-18 13:24 47.393360 -122.465706 40 9751ft 263kts
10-Jun-18 13:25 47.432958 -122.388496 86 8430ft 252kts
10-Jun-18 13:26 47.421036 -122.300607 105 7112ft 229kts
10-Jun-18 13:27 47.410248 -122.213470 77 5784ft 219kts
10-Jun-18 13:28 47.453276 -122.168829 23 4487ft 209kts
10-Jun-18 13:29 47.502109 -122.138024 22 3193ft 201kts
10-Jun-18 13:30 47.553563 -122.142913 351 3017ft 193kts
10-Jun-18 13:31 47.574620 -122.189244 252 1839ft 156kts
10-Jun-18 13:32 47.545253 -122.215279 198 1789ft 132kts
10-Jun-18 13:33 47.513197 -122.218588 175 543ft 117kts
10-Jun-18 13:34 47.489891 -122.215265 174 29ft 25kts
10-Jun-18 13:35 47.490161 -122.213881 349 28ft 5kts
10-Jun-18 13:36 47.490361 -122.213142 84 28ft 0kts
10-Jun-18 13:37 47.490361 -122.213142 84 28ft 0kts
10-Jun-18 13:38 47.490361 -122.213142 84 28ft 0kts
10-Jun-18 13:47 47.490361 -122.213142 84 28ft 0kts

Navigation Log

Ident Type
Flight plan parsing failed, navigation log unavailable